Aérodrome :
LOGIN :

S'inscrire | Disclaimer

   EN    FR    IT 

 










Légende :    VFR   VFR Marginal   IFR   IFR Intensif   IFR Très Intensif
Visi : 
Plafond : 
>= 8 km
>= 3000ft
5 à 8 km
1000 à 3000 ft
1500m à 5 km
500 à 1000 ft
800 à 1500m
200 à 500 ft
< 800m
< 200 ft
Symboles :   Orages  Brouillard  Fortes neiges  Fortes précipitations  Vent > 20 kt
SIGMETs :   Divers  Orages  Givrage  Turbulence  Onde Orograph.  Cendres Volcan.






- Altitude de l'aérodrome : 56 ft
- Code IATA : ILY


EGPI - Islay

DERNIER METAR :
  • 190320Z AUTO 25008KT 9999 NCD 06/05 Q1039

METARs EXPIRÉS :
  • 190250Z AUTO 25007KT 9999 NCD 05/04 Q1038
  • 190220Z AUTO 25006KT 9999 NCD 05/04 Q1038
  • 190150Z AUTO 26008KT 9999 NCD 05/04 Q1038
  • 190120Z AUTO 26009KT 9999 FEW013/// 05/04 Q1038
  • 190050Z AUTO VRB03KT 9999 FEW028/// 02/02 Q1037

TAF TAF EGPI
Valide du 19 à 03h jusqu'au 19 à 12h UTC


190155Z 1903/1912 22009KT 9999 FEW030
PROB30
TEMPO 1909/1912 23015G25KT



MET'MAP, la Météo Aéronautique d'un coup d'oeil ! - Copyright ORBIFLY Décembre 2007 - Disclaimer

ORBIFLY MET'MAP TEAM :

Programmation & Développement : Alexandra Zaïnal
Sur une idée originale de : Baudouin d'Aumeries
Assistance à la programmation : Marc-Olivier Méhu
Soutien technique & logistique : Manuel Goepfert

Contact : metmap@orbifly.com




SOURCES & CREDITS :

   NOAA